Time;durP1;ratioP1;P1;durP2;ratioP2;P2;SDS_P1;SDS_P2;PMS_P1;PMS_P2;Temp;Humidity;BMP_temperature;BMP_pressure;BME280_temperature;BME280_humidity;BME280_pressure;Samples;Min_cycle;Max_cycle;Signal;HPM_P1;HPM_P2
2021/03/18 00:00:49;;;;;;;;;7.75;6.75;;;;;;;;5023477;28;11514;-78
2021/03/18 00:03:17;;;;;;;;;12.00;8.50;;;;;;;;5020041;28;12537;-77
2021/03/18 00:05:46;;;;;;;;;8.75;6.25;;;;;;;;5025427;28;11681;-78
2021/03/18 00:08:14;;;;;;;;;13.50;11.75;;;;;;;;5016563;28;11660;-78
2021/03/18 00:10:42;;;;;;;;;21.75;13.25;;;;;;;;5015584;28;11638;-78
2021/03/18 00:13:09;;;;;;;;;9.25;8.00;;;;;;;;5022804;28;11679;-76
2021/03/18 00:15:37;;;;;;;;;7.75;4.25;;;;;;;;5023109;28;11536;-76
2021/03/18 00:18:06;;;;;;;;;13.50;10.50;;;;;;;;5020263;28;11539;-75
2021/03/18 00:20:33;;;;;;;;;5.75;4.00;;;;;;;;5021865;28;11750;-76
2021/03/18 00:23:01;;;;;;;;;5.00;5.00;;;;;;;;5022275;28;11562;-77
2021/03/18 00:25:28;;;;;;;;;13.00;12.25;;;;;;;;5015804;28;11568;-77
2021/03/18 00:27:55;;;;;;;;;8.50;8.50;;;;;;;;5023815;28;11682;-77
2021/03/18 00:30:24;;;;;;;;;8.25;8.25;;;;;;;;5023446;28;11479;-74
2021/03/18 00:32:52;;;;;;;;;21.00;17.25;;;;;;;;5021985;28;11671;-78
2021/03/18 00:35:20;;;;;;;;;18.50;14.00;;;;;;;;5025175;28;11630;-78
2021/03/18 00:37:48;;;;;;;;;13.50;10.50;;;;;;;;5020587;28;11559;-78
2021/03/18 00:40:19;;;;;;;;;11.00;11.00;;;;;;;;5020255;28;11712;-81
2021/03/18 00:42:51;;;;;;;;;12.75;12.75;;;;;;;;5020844;28;11740;-81
2021/03/18 00:45:18;;;;;;;;;61.50;49.25;;;;;;;;5023588;28;12446;-80
2021/03/18 00:47:45;;;;;;;;;18.75;16.00;;;;;;;;5023428;28;11691;-80
2021/03/18 00:50:15;;;;;;;;;35.25;34.25;;;;;;;;5021963;28;11608;-79
2021/03/18 00:52:42;;;;;;;;;11.25;7.00;;;;;;;;5023356;28;11705;-79
2021/03/18 00:55:10;;;;;;;;;14.25;12.75;;;;;;;;5018645;28;11611;-80
2021/03/18 00:57:38;;;;;;;;;4.75;4.00;;;;;;;;5018154;28;11702;-78
2021/03/18 01:00:09;;;;;;;;;84.00;62.75;;;;;;;;5022618;28;11618;-79
2021/03/18 01:02:36;;;;;;;;;19.50;15.25;;;;;;;;5023882;28;11829;-79
2021/03/18 01:05:05;;;;;;;;;14.50;13.50;;;;;;;;5020317;28;11725;-79
2021/03/18 01:07:32;;;;;;;;;3.75;2.00;;;;;;;;5022768;28;11630;-79
2021/03/18 01:09:59;;;;;;;;;4.50;1.75;;;;;;;;5014364;28;11607;-78
2021/03/18 01:12:26;;;;;;;;;10.50;10.50;;;;;;;;5026844;28;12284;-79
2021/03/18 01:14:54;;;;;;;;;4.75;4.75;;;;;;;;5028282;28;12947;-79
2021/03/18 01:17:21;;;;;;;;;4.25;1.50;;;;;;;;5008657;28;11567;-79
2021/03/18 01:19:48;;;;;;;;;5.75;4.25;;;;;;;;5022552;28;11605;-82
2021/03/18 01:22:15;;;;;;;;;13.75;9.00;;;;;;;;5026895;28;11690;-81
2021/03/18 01:24:42;;;;;;;;;5.75;4.00;;;;;;;;5020037;28;11537;-81
2021/03/18 01:27:09;;;;;;;;;7.75;4.00;;;;;;;;5024818;28;11649;-81
2021/03/18 01:29:36;;;;;;;;;1.75;1.75;;;;;;;;5024991;28;11662;-81
2021/03/18 01:32:04;;;;;;;;;2.00;2.00;;;;;;;;5003761;28;11487;-79
2021/03/18 01:34:31;;;;;;;;;2.50;2.50;;;;;;;;5020792;28;11553;-80
2021/03/18 01:36:58;;;;;;;;;4.75;3.50;;;;;;;;5020036;28;11668;-79
2021/03/18 01:39:25;;;;;;;;;3.50;2.75;;;;;;;;5021639;28;11531;-81
2021/03/18 01:41:52;;;;;;;;;7.25;4.50;;;;;;;;5023699;28;11619;-79
2021/03/18 01:44:19;;;;;;;;;2.00;2.00;;;;;;;;5023767;28;11657;-80
2021/03/18 01:46:46;;;;;;;;;3.50;3.50;;;;;;;;5024666;28;11534;-79
2021/03/18 01:49:15;;;;;;;;;8.00;5.75;;;;;;;;5024379;28;11559;-81
2021/03/18 01:51:42;;;;;;;;;5.50;4.25;;;;;;;;5022899;28;11673;-80
2021/03/18 01:54:09;;;;;;;;;6.50;2.00;;;;;;;;5026660;28;11653;-79
2021/03/18 01:56:36;;;;;;;;;4.00;2.00;;;;;;;;5023444;28;11678;-78
2021/03/18 01:59:03;;;;;;;;;5.00;1.50;;;;;;;;5023142;28;11697;-80
2021/03/18 02:01:30;;;;;;;;;5.25;5.25;;;;;;;;5023399;28;11533;-81
2021/03/18 02:03:57;;;;;;;;;11.75;4.00;;;;;;;;5024061;28;12364;-81
2021/03/18 02:06:25;;;;;;;;;2.50;2.50;;;;;;;;5021924;28;11633;-79
2021/03/18 02:08:52;;;;;;;;;7.00;2.00;;;;;;;;5021914;28;11565;-81
2021/03/18 02:11:19;;;;;;;;;2.50;2.50;;;;;;;;5023361;28;11673;-80
2021/03/18 02:13:46;;;;;;;;;2.00;2.00;;;;;;;;5022432;28;11543;-80
2021/03/18 02:16:14;;;;;;;;;6.25;4.75;;;;;;;;5025470;28;11550;-77
2021/03/18 02:18:50;;;;;;;;;9.25;4.25;;;;;;;;5022007;28;11665;-79
2021/03/18 02:22:03;;;;;;;;;2.50;2.25;;;;;;;;5023898;28;11639;-78
2021/03/18 02:24:43;;;;;;;;;9.75;6.50;;;;;;;;4988782;28;11568;-79
2021/03/18 02:27:50;;;;;;;;;4.75;4.00;;;;;;;;5022246;28;11727;-79
2021/03/18 02:30:47;;;;;;;;;3.50;3.50;;;;;;;;4996535;28;11578;-78
2021/03/18 02:33:43;;;;;;;;;3.75;2.00;;;;;;;;5011578;28;11529;-78
2021/03/18 02:36:13;;;;;;;;;4.00;3.50;;;;;;;;5016760;28;11529;-79
2021/03/18 02:38:42;;;;;;;;;6.75;6.75;;;;;;;;5018548;28;11627;-77
2021/03/18 02:41:14;;;;;;;;;2.00;2.00;;;;;;;;5019558;28;11647;-79
2021/03/18 02:43:45;;;;;;;;;8.75;2.00;;;;;;;;5024289;28;11635;-80
2021/03/18 02:46:13;;;;;;;;;5.00;5.00;;;;;;;;5026156;28;11622;-79
2021/03/18 02:48:41;;;;;;;;;4.00;4.00;;;;;;;;5023273;28;11539;-78
2021/03/18 02:51:14;;;;;;;;;3.00;3.00;;;;;;;;5024354;28;11565;-76
2021/03/18 02:53:44;;;;;;;;;6.25;5.00;;;;;;;;5013625;28;12340;-79
2021/03/18 02:56:15;;;;;;;;;7.50;4.25;;;;;;;;5020538;28;11582;-79
2021/03/18 02:58:44;;;;;;;;;2.50;2.00;;;;;;;;5025522;28;11737;-79
2021/03/18 03:01:11;;;;;;;;;7.25;2.50;;;;;;;;5020214;28;12383;-79
2021/03/18 03:03:39;;;;;;;;;7.25;3.50;;;;;;;;5024431;28;11547;-78
2021/03/18 03:06:07;;;;;;;;;6.50;3.00;;;;;;;;5022736;28;12289;-79
2021/03/18 03:08:35;;;;;;;;;5.00;5.00;;;;;;;;5023965;28;11683;-80
2021/03/18 03:11:04;;;;;;;;;11.00;4.25;;;;;;;;5015189;28;11606;-79
2021/03/18 03:13:33;;;;;;;;;6.00;5.00;;;;;;;;5025656;28;11522;-76
2021/03/18 03:16:03;;;;;;;;;1.00;1.00;;;;;;;;5026515;28;11658;-77
2021/03/18 03:18:31;;;;;;;;;5.25;2.00;;;;;;;;5022761;28;11536;-78
2021/03/18 03:20:58;;;;;;;;;6.75;4.75;;;;;;;;5022518;28;11630;-78
2021/03/18 03:23:26;;;;;;;;;2.00;2.00;;;;;;;;5023938;28;11729;-79
2021/03/18 03:25:55;;;;;;;;;5.50;5.50;;;;;;;;5017044;28;11542;-79
2021/03/18 03:28:22;;;;;;;;;2.50;2.00;;;;;;;;5022711;28;11667;-81
2021/03/18 03:30:49;;;;;;;;;1.00;1.00;;;;;;;;5021551;28;11520;-79
2021/03/18 03:33:16;;;;;;;;;9.50;7.50;;;;;;;;5023210;28;11541;-81
2021/03/18 03:35:43;;;;;;;;;3.00;3.00;;;;;;;;5020840;28;11690;-81
2021/03/18 03:38:10;;;;;;;;;10.25;2.50;;;;;;;;5021441;28;11590;-80
2021/03/18 03:40:37;;;;;;;;;1.75;1.75;;;;;;;;5022285;28;11672;-79
2021/03/18 03:43:05;;;;;;;;;5.00;4.50;;;;;;;;5024234;28;11557;-79
2021/03/18 03:45:32;;;;;;;;;5.50;1.50;;;;;;;;5017265;28;11577;-79
2021/03/18 03:47:59;;;;;;;;;4.00;1.50;;;;;;;;5024117;28;11631;-80
2021/03/18 03:50:28;;;;;;;;;6.75;2.00;;;;;;;;5024274;28;12445;-79
2021/03/18 03:53:02;;;;;;;;;4.00;2.00;;;;;;;;5021524;28;11570;-77
2021/03/18 03:55:35;;;;;;;;;2.00;0.00;;;;;;;;5022510;28;11572;-78
2021/03/18 03:58:11;;;;;;;;;2.00;2.00;;;;;;;;5023056;28;11652;-79
2021/03/18 04:00:41;;;;;;;;;1.00;1.00;;;;;;;;5022279;28;11506;-79
2021/03/18 04:03:10;;;;;;;;;5.00;4.00;;;;;;;;5023653;28;11647;-78
2021/03/18 04:05:44;;;;;;;;;2.50;2.00;;;;;;;;5022737;28;11549;-78
2021/03/18 04:08:13;;;;;;;;;1.50;1.50;;;;;;;;5015500;28;11545;-77
2021/03/18 04:10:42;;;;;;;;;3.50;3.50;;;;;;;;5020675;28;12503;-79
2021/03/18 04:13:11;;;;;;;;;2.00;2.00;;;;;;;;5022560;28;11693;-79
2021/03/18 04:15:39;;;;;;;;;1.50;1.50;;;;;;;;5023646;28;11530;-77
2021/03/18 04:18:08;;;;;;;;;4.00;4.00;;;;;;;;5020868;28;11504;-79
2021/03/18 04:20:37;;;;;;;;;2.00;2.00;;;;;;;;5022943;28;11696;-78
2021/03/18 04:23:07;;;;;;;;;5.00;2.00;;;;;;;;5021430;28;11677;-79
2021/03/18 04:25:34;;;;;;;;;4.00;1.75;;;;;;;;5022304;28;11654;-79
2021/03/18 04:28:01;;;;;;;;;1.25;1.25;;;;;;;;5022146;28;11532;-80
2021/03/18 04:30:30;;;;;;;;;4.25;2.75;;;;;;;;5023564;28;11486;-78
2021/03/18 04:32:58;;;;;;;;;4.00;3.75;;;;;;;;5020302;28;11599;-78
2021/03/18 04:35:26;;;;;;;;;2.75;2.00;;;;;;;;5022398;28;12353;-79
2021/03/18 04:37:53;;;;;;;;;8.50;4.75;;;;;;;;5022493;28;11532;-79
2021/03/18 04:40:21;;;;;;;;;5.25;3.00;;;;;;;;5020047;28;12422;-79
2021/03/18 04:42:49;;;;;;;;;4.00;1.00;;;;;;;;5022147;28;12313;-78
2021/03/18 04:45:19;;;;;;;;;2.00;0.75;;;;;;;;5022410;28;11525;-82
2021/03/18 04:47:49;;;;;;;;;2.00;2.00;;;;;;;;5023207;28;12532;-78
2021/03/18 04:50:19;;;;;;;;;2.00;2.00;;;;;;;;5020984;28;11564;-79
2021/03/18 04:52:47;;;;;;;;;4.25;2.00;;;;;;;;5023104;28;11545;-79
2021/03/18 04:55:16;;;;;;;;;3.50;2.50;;;;;;;;5020308;28;11543;-80
2021/03/18 04:57:44;;;;;;;;;2.50;1.25;;;;;;;;5021334;28;11542;-79
2021/03/18 05:00:13;;;;;;;;;6.25;2.00;;;;;;;;5014902;28;11542;-77
2021/03/18 05:02:42;;;;;;;;;1.25;1.25;;;;;;;;5020806;28;11552;-76
2021/03/18 05:05:13;;;;;;;;;3.00;1.50;;;;;;;;5020422;28;11649;-78
2021/03/18 05:07:41;;;;;;;;;1.00;1.00;;;;;;;;5025148;28;11641;-77
2021/03/18 05:10:09;;;;;;;;;8.00;4.00;;;;;;;;5018184;28;11557;-80
2021/03/18 05:12:38;;;;;;;;;5.75;3.00;;;;;;;;5021726;28;11728;-80
2021/03/18 05:15:07;;;;;;;;;3.25;1.75;;;;;;;;5022047;28;11559;-82
2021/03/18 05:17:34;;;;;;;;;4.50;4.50;;;;;;;;5020746;28;11551;-79
2021/03/18 05:20:02;;;;;;;;;3.50;3.50;;;;;;;;5021054;28;11540;-79
2021/03/18 05:22:30;;;;;;;;;2.50;2.00;;;;;;;;5018829;28;11678;-79
2021/03/18 05:24:58;;;;;;;;;3.50;1.75;;;;;;;;5020353;28;11558;-79
2021/03/18 05:27:25;;;;;;;;;6.25;1.50;;;;;;;;5021584;28;12340;-81
2021/03/18 05:29:52;;;;;;;;;1.00;1.00;;;;;;;;5022634;28;11552;-78
2021/03/18 05:32:19;;;;;;;;;3.50;3.50;;;;;;;;5018997;28;11597;-80
2021/03/18 05:34:46;;;;;;;;;2.00;2.00;;;;;;;;5022997;28;11662;-80
2021/03/18 05:37:12;;;;;;;;;5.00;1.00;;;;;;;;5021820;28;11551;-80
2021/03/18 05:39:40;;;;;;;;;5.00;1.00;;;;;;;;5015251;28;11687;-81
2021/03/18 05:42:07;;;;;;;;;1.75;1.75;;;;;;;;5019871;28;11538;-76
2021/03/18 05:44:34;;;;;;;;;5.00;3.50;;;;;;;;5023417;28;11556;-75
2021/03/18 05:47:02;;;;;;;;;4.00;2.00;;;;;;;;5021683;28;11667;-79
2021/03/18 05:49:29;;;;;;;;;1.00;1.00;;;;;;;;5017200;28;11571;-78
2021/03/18 05:51:58;;;;;;;;;2.00;2.00;;;;;;;;5020427;28;12299;-82
2021/03/18 05:54:25;;;;;;;;;3.50;3.00;;;;;;;;5020195;28;12340;-77
2021/03/18 05:56:55;;;;;;;;;2.00;2.00;;;;;;;;5025166;28;11549;-80
2021/03/18 05:59:22;;;;;;;;;1.00;1.00;;;;;;;;5024043;28;11573;-80
2021/03/18 06:01:50;;;;;;;;;1.75;1.75;;;;;;;;5025546;28;11484;-78
2021/03/18 06:04:17;;;;;;;;;3.50;2.00;;;;;;;;5024673;28;11590;-78
2021/03/18 06:06:45;;;;;;;;;5.00;1.25;;;;;;;;5020097;28;11663;-82
2021/03/18 06:09:12;;;;;;;;;7.00;4.75;;;;;;;;5023852;28;11541;-75
2021/03/18 06:11:40;;;;;;;;;7.75;4.00;;;;;;;;5019192;28;11564;-74
2021/03/18 06:14:08;;;;;;;;;7.00;4.25;;;;;;;;5025630;28;11554;-74
2021/03/18 06:16:37;;;;;;;;;5.00;2.50;;;;;;;;5024365;28;11555;-75
2021/03/18 06:19:07;;;;;;;;;6.50;6.50;;;;;;;;5023235;28;12385;-76
2021/03/18 06:21:45;;;;;;;;;4.00;2.00;;;;;;;;5021233;28;11676;-76
2021/03/18 06:24:13;;;;;;;;;3.25;2.00;;;;;;;;5024525;28;11656;-76
2021/03/18 06:26:40;;;;;;;;;7.75;2.00;;;;;;;;5025548;28;11632;-75
2021/03/18 06:29:28;;;;;;;;;4.75;2.00;;;;;;;;5024628;28;11001;-75
2021/03/18 06:31:56;;;;;;;;;4.00;3.00;;;;;;;;5022440;28;12333;-75
2021/03/18 06:34:40;;;;;;;;;6.00;3.00;;;;;;;;5020435;28;11632;-77
2021/03/18 06:37:34;;;;;;;;;3.50;3.50;;;;;;;;5023519;28;11589;-75
2021/03/18 06:40:09;;;;;;;;;11.00;10.00;;;;;;;;5010534;28;11548;-77
2021/03/18 06:42:36;;;;;;;;;5.00;3.00;;;;;;;;5023917;28;11549;-78
2021/03/18 06:45:11;;;;;;;;;4.25;4.25;;;;;;;;5026426;28;11665;-78
2021/03/18 06:47:46;;;;;;;;;4.25;4.25;;;;;;;;5024552;28;10969;-77
2021/03/18 06:50:15;;;;;;;;;5.00;4.00;;;;;;;;5025834;28;11732;-78
2021/03/18 06:52:44;;;;;;;;;12.00;5.00;;;;;;;;5025273;28;11536;-77
2021/03/18 06:55:13;;;;;;;;;11.50;8.00;;;;;;;;5022634;28;11564;-76
2021/03/18 06:57:40;;;;;;;;;6.50;5.00;;;;;;;;5017580;28;11561;-73
2021/03/18 07:00:12;;;;;;;;;5.25;5.25;;;;;;;;5017383;28;11591;-73
2021/03/18 07:02:41;;;;;;;;;4.50;4.50;;;;;;;;5021357;28;11550;-72
2021/03/18 07:05:18;;;;;;;;;8.00;5.00;;;;;;;;5014715;28;11668;-73
2021/03/18 07:07:47;;;;;;;;;8.00;8.00;;;;;;;;5022428;28;11627;-73
2021/03/18 07:10:15;;;;;;;;;6.50;4.25;;;;;;;;5012630;28;11600;-73
2021/03/18 07:12:42;;;;;;;;;11.00;8.00;;;;;;;;5016517;28;11664;-74
2021/03/18 07:15:19;;;;;;;;;8.75;8.75;;;;;;;;5025190;28;11571;-73
2021/03/18 07:17:47;;;;;;;;;9.00;9.00;;;;;;;;5024198;28;11647;-73
2021/03/18 07:20:17;;;;;;;;;12.25;8.25;;;;;;;;5021845;28;11533;-73
2021/03/18 07:22:45;;;;;;;;;12.00;5.75;;;;;;;;5016335;28;11546;-72
2021/03/18 07:25:14;;;;;;;;;9.25;6.25;;;;;;;;5021053;28;11585;-72
2021/03/18 07:27:43;;;;;;;;;9.75;7.00;;;;;;;;5022464;28;11701;-71
2021/03/18 07:30:11;;;;;;;;;8.75;7.00;;;;;;;;5023186;28;11571;-71
2021/03/18 07:32:40;;;;;;;;;11.00;9.00;;;;;;;;5024646;28;11537;-70
2021/03/18 07:35:09;;;;;;;;;4.25;4.25;;;;;;;;5018193;28;11571;-71
2021/03/18 07:37:36;;;;;;;;;8.00;5.00;;;;;;;;5024044;28;12340;-70
2021/03/18 07:40:03;;;;;;;;;11.25;6.00;;;;;;;;5016862;28;11549;-71
2021/03/18 07:42:30;;;;;;;;;9.25;5.75;;;;;;;;5023911;28;11638;-71
2021/03/18 07:44:57;;;;;;;;;9.25;5.25;;;;;;;;5024921;28;12447;-71
2021/03/18 07:47:25;;;;;;;;;19.75;13.25;;;;;;;;5023590;28;11546;-71
2021/03/18 07:49:54;;;;;;;;;5.25;4.50;;;;;;;;5024168;28;11713;-72
2021/03/18 07:52:24;;;;;;;;;9.50;7.50;;;;;;;;5020823;28;11569;-71
2021/03/18 07:54:52;;;;;;;;;20.25;16.75;;;;;;;;5016921;28;11567;-71
2021/03/18 07:57:19;;;;;;;;;16.00;14.00;;;;;;;;5020703;28;11623;-71
2021/03/18 07:59:47;;;;;;;;;20.00;20.00;;;;;;;;5023647;28;11712;-71
2021/03/18 08:02:16;;;;;;;;;32.00;20.25;;;;;;;;5015990;28;11567;-71
2021/03/18 08:04:45;;;;;;;;;13.75;13.50;;;;;;;;5022739;28;11607;-71
2021/03/18 08:07:19;;;;;;;;;25.25;20.75;;;;;;;;5021284;28;11733;-71
2021/03/18 08:09:51;;;;;;;;;17.75;16.75;;;;;;;;5021881;28;11724;-71
2021/03/18 08:12:41;;;;;;;;;12.50;12.50;;;;;;;;5023003;28;11590;-73
2021/03/18 08:15:27;;;;;;;;;14.25;14.25;;;;;;;;5022053;28;11530;-72
2021/03/18 08:17:57;;;;;;;;;12.75;9.75;;;;;;;;5020684;28;11614;-72
2021/03/18 08:21:01;;;;;;;;;18.25;16.75;;;;;;;;5019492;28;11528;-72
2021/03/18 08:23:52;;;;;;;;;9.25;5.00;;;;;;;;5020261;28;11553;-71
2021/03/18 08:26:35;;;;;;;;;5.50;5.25;;;;;;;;5015501;28;11493;-72
2021/03/18 08:29:05;;;;;;;;;8.50;8.50;;;;;;;;5023119;28;11523;-72
2021/03/18 08:31:57;;;;;;;;;5.75;5.00;;;;;;;;5019569;28;11566;-72
2021/03/18 08:34:46;;;;;;;;;13.50;6.00;;;;;;;;5020431;28;12436;-71
2021/03/18 08:37:14;;;;;;;;;8.25;5.00;;;;;;;;5021496;28;11479;-73
2021/03/18 08:39:47;;;;;;;;;5.00;3.25;;;;;;;;5018807;28;11502;-72
2021/03/18 08:42:42;;;;;;;;;4.25;2.50;;;;;;;;5017462;28;11611;-72
2021/03/18 08:45:26;;;;;;;;;4.50;2.25;;;;;;;;5001192;28;11678;-72
2021/03/18 08:47:56;;;;;;;;;6.00;4.00;;;;;;;;5013464;28;11535;-72
2021/03/18 08:50:47;;;;;;;;;2.25;2.00;;;;;;;;5018953;28;11565;-72
2021/03/18 08:53:29;;;;;;;;;0.00;0.00;;;;;;;;5018555;28;12259;-71
2021/03/18 08:55:57;;;;;;;;;1.75;1.75;;;;;;;;5019955;28;11482;-72
2021/03/18 08:58:24;;;;;;;;;3.75;3.25;;;;;;;;5020678;28;11589;-72
2021/03/18 09:00:51;;;;;;;;;2.00;2.00;;;;;;;;5021322;28;11123;-72
2021/03/18 09:03:20;;;;;;;;;6.00;5.00;;;;;;;;5021053;28;11248;-71
2021/03/18 09:05:52;;;;;;;;;2.75;2.75;;;;;;;;5019386;28;11241;-72
2021/03/18 09:08:24;;;;;;;;;9.50;5.75;;;;;;;;5016955;28;11518;-71
2021/03/18 09:10:52;;;;;;;;;9.00;5.25;;;;;;;;5019894;28;11499;-71
2021/03/18 09:13:21;;;;;;;;;4.50;4.00;;;;;;;;5020706;28;11480;-72
2021/03/18 09:15:49;;;;;;;;;2.75;2.00;;;;;;;;5021941;28;11468;-72
2021/03/18 09:18:19;;;;;;;;;5.00;1.00;;;;;;;;5017162;28;11494;-72
2021/03/18 09:20:50;;;;;;;;;7.00;5.25;;;;;;;;5019657;28;11549;-72
2021/03/18 09:23:19;;;;;;;;;7.25;5.75;;;;;;;;5016952;28;11522;-70
2021/03/18 09:25:46;;;;;;;;;10.25;4.75;;;;;;;;5020360;28;11502;-71
2021/03/18 09:28:14;;;;;;;;;5.50;3.25;;;;;;;;5020446;28;11498;-72
2021/03/18 09:30:43;;;;;;;;;6.00;4.25;;;;;;;;5025055;28;11431;-70
2021/03/18 09:33:19;;;;;;;;;4.75;4.75;;;;;;;;5024366;28;11494;-73
2021/03/18 09:35:46;;;;;;;;;12.00;5.25;;;;;;;;5023393;28;11487;-71
2021/03/18 09:38:19;;;;;;;;;5.25;5.00;;;;;;;;5026586;28;11653;-72
2021/03/18 09:40:46;;;;;;;;;4.25;4.00;;;;;;;;5022399;28;11473;-72
2021/03/18 09:43:15;;;;;;;;;9.25;6.00;;;;;;;;5026172;28;11523;-71
2021/03/18 09:45:51;;;;;;;;;5.50;4.25;;;;;;;;5024516;28;11507;-72
2021/03/18 09:48:24;;;;;;;;;6.00;4.75;;;;;;;;5026130;28;11477;-72
2021/03/18 09:50:53;;;;;;;;;1.50;1.50;;;;;;;;5022377;28;12462;-71
2021/03/18 09:53:20;;;;;;;;;7.00;2.50;;;;;;;;5025283;28;12232;-72
2021/03/18 09:55:47;;;;;;;;;6.75;5.00;;;;;;;;5023230;28;11624;-72
2021/03/18 09:58:15;;;;;;;;;7.75;2.00;;;;;;;;5024939;28;11513;-71
2021/03/18 10:00:42;;;;;;;;;6.25;4.25;;;;;;;;5025986;28;11525;-72
2021/03/18 10:03:11;;;;;;;;;6.75;5.50;;;;;;;;5024817;28;11566;-72
2021/03/18 10:05:38;;;;;;;;;11.25;9.25;;;;;;;;5021977;28;11523;-72
2021/03/18 10:08:05;;;;;;;;;4.75;3.50;;;;;;;;5021384;28;11426;-72
2021/03/18 10:10:34;;;;;;;;;2.00;2.00;;;;;;;;5021050;28;11873;-72
2021/03/18 10:13:01;;;;;;;;;13.75;9.25;;;;;;;;5025703;28;12303;-72
2021/03/18 10:15:30;;;;;;;;;8.50;6.00;;;;;;;;5024394;28;11487;-73
2021/03/18 10:17:58;;;;;;;;;9.00;6.00;;;;;;;;5026547;28;11493;-72
2021/03/18 10:20:31;;;;;;;;;9.75;5.00;;;;;;;;5021984;28;11493;-71
2021/03/18 10:23:01;;;;;;;;;6.25;6.25;;;;;;;;5020885;28;11529;-72
2021/03/18 10:25:30;;;;;;;;;11.00;11.00;;;;;;;;5024123;28;11600;-72
2021/03/18 10:28:03;;;;;;;;;17.00;11.75;;;;;;;;5024871;28;11508;-71
2021/03/18 10:30:30;;;;;;;;;13.75;6.75;;;;;;;;5025002;28;11453;-71
2021/03/18 10:33:09;;;;;;;;;9.75;7.75;;;;;;;;5023166;28;11510;-70
2021/03/18 10:35:39;;;;;;;;;17.00;16.25;;;;;;;;5025256;28;11508;-71
2021/03/18 10:38:11;;;;;;;;;4.75;4.25;;;;;;;;5021787;28;11587;-70
2021/03/18 10:40:43;;;;;;;;;5.25;5.25;;;;;;;;5020268;28;11641;-70
2021/03/18 10:43:24;;;;;;;;;14.75;10.00;;;;;;;;5023244;28;11475;-70
2021/03/18 10:45:53;;;;;;;;;10.75;6.25;;;;;;;;5021012;28;11540;-71
2021/03/18 10:48:27;;;;;;;;;7.00;5.75;;;;;;;;5024107;28;11596;-71
2021/03/18 10:51:01;;;;;;;;;8.00;8.00;;;;;;;;5020222;28;11614;-72
2021/03/18 10:53:28;;;;;;;;;15.00;15.00;;;;;;;;5023230;28;11495;-73
2021/03/18 10:55:56;;;;;;;;;11.50;9.25;;;;;;;;5022303;28;11601;-73
2021/03/18 10:58:25;;;;;;;;;8.50;7.00;;;;;;;;5017957;28;11507;-72
2021/03/18 11:00:58;;;;;;;;;9.75;4.75;;;;;;;;5021920;28;11436;-72
2021/03/18 11:03:28;;;;;;;;;5.00;5.00;;;;;;;;5021769;28;11366;-72
2021/03/18 11:05:57;;;;;;;;;12.75;9.75;;;;;;;;5022362;28;11617;-72
2021/03/18 11:08:30;;;;;;;;;5.00;5.00;;;;;;;;5021242;28;11282;-72
2021/03/18 11:10:58;;;;;;;;;6.25;5.00;;;;;;;;5021654;28;11262;-72
2021/03/18 11:13:26;;;;;;;;;6.00;6.00;;;;;;;;5023061;28;11773;-72
2021/03/18 11:15:57;;;;;;;;;8.00;7.50;;;;;;;;5022750;28;11142;-72
2021/03/18 11:18:32;;;;;;;;;10.75;8.50;;;;;;;;5024797;28;11197;-71
2021/03/18 11:21:01;;;;;;;;;9.00;6.75;;;;;;;;5020046;28;11196;-70
2021/03/18 11:23:33;;;;;;;;;14.75;10.00;;;;;;;;5020793;28;12446;-70
2021/03/18 11:26:04;;;;;;;;;11.00;6.75;;;;;;;;5020564;28;11474;-71
2021/03/18 11:28:31;;;;;;;;;12.25;9.00;;;;;;;;5024358;28;11246;-70
2021/03/18 11:30:59;;;;;;;;;4.50;4.50;;;;;;;;5024538;28;11381;-70
2021/03/18 11:33:32;;;;;;;;;6.00;6.00;;;;;;;;5014315;28;11132;-70
2021/03/18 11:36:03;;;;;;;;;13.75;9.25;;;;;;;;5022458;28;11243;-70
2021/03/18 11:38:30;;;;;;;;;9.50;5.25;;;;;;;;5023056;28;11117;-70
2021/03/18 11:40:57;;;;;;;;;11.00;5.75;;;;;;;;5021108;28;11271;-71
2021/03/18 11:43:25;;;;;;;;;6.00;6.00;;;;;;;;5019837;28;11177;-70
2021/03/18 11:45:52;;;;;;;;;13.25;9.50;;;;;;;;5022973;28;11354;-72
2021/03/18 11:48:19;;;;;;;;;6.00;6.00;;;;;;;;5023520;28;11513;-72
2021/03/18 11:50:46;;;;;;;;;6.50;5.25;;;;;;;;5016600;28;11089;-71
2021/03/18 11:53:14;;;;;;;;;15.75;10.50;;;;;;;;5020579;28;11028;-71
2021/03/18 11:55:41;;;;;;;;;15.00;12.75;;;;;;;;5021563;28;11117;-71
2021/03/18 11:58:08;;;;;;;;;5.25;5.25;;;;;;;;5022928;28;12643;-72
2021/03/18 12:00:37;;;;;;;;;7.50;7.50;;;;;;;;5022046;28;10781;-71
2021/03/18 12:03:05;;;;;;;;;8.75;6.00;;;;;;;;5022131;28;11689;-71
2021/03/18 12:05:32;;;;;;;;;11.00;11.00;;;;;;;;5023455;28;10856;-71
2021/03/18 12:07:59;;;;;;;;;7.75;7.00;;;;;;;;5017656;28;11143;-72
2021/03/18 12:10:27;;;;;;;;;19.00;12.75;;;;;;;;5016189;28;10931;-72
2021/03/18 12:12:54;;;;;;;;;15.75;14.75;;;;;;;;5021622;28;11759;-71
2021/03/18 12:15:21;;;;;;;;;9.50;9.50;;;;;;;;5024556;28;11643;-71
2021/03/18 12:17:49;;;;;;;;;21.50;19.00;;;;;;;;5023141;28;11052;-72
2021/03/18 12:20:19;;;;;;;;;12.00;10.50;;;;;;;;5019489;28;11230;-72
2021/03/18 12:22:47;;;;;;;;;17.50;17.50;;;;;;;;5023247;28;11117;-73
2021/03/18 12:25:16;;;;;;;;;31.00;28.00;;;;;;;;5019673;28;11300;-70
2021/03/18 12:27:45;;;;;;;;;35.25;35.25;;;;;;;;5024335;28;11719;-69
2021/03/18 12:30:15;;;;;;;;;7.00;7.00;;;;;;;;5018551;28;12324;-70
2021/03/18 12:32:42;;;;;;;;;6.75;6.75;;;;;;;;5022027;28;11169;-70
2021/03/18 12:35:14;;;;;;;;;13.00;8.00;;;;;;;;5020847;28;10995;-70
2021/03/18 12:37:40;;;;;;;;;20.25;20.25;;;;;;;;5018866;28;11112;-70
2021/03/18 12:40:09;;;;;;;;;18.00;18.00;;;;;;;;5020355;28;11641;-71
2021/03/18 12:42:38;;;;;;;;;20.00;15.25;;;;;;;;5020416;28;11324;-70
2021/03/18 12:45:11;;;;;;;;;14.00;11.25;;;;;;;;5023387;28;11542;-71
2021/03/18 12:47:38;;;;;;;;;19.00;16.50;;;;;;;;5022179;28;11142;-70
2021/03/18 12:50:06;;;;;;;;;13.25;13.25;;;;;;;;5020390;28;11546;-70
2021/03/18 12:52:33;;;;;;;;;18.25;16.75;;;;;;;;5021009;28;12191;-71
2021/03/18 12:55:00;;;;;;;;;10.50;8.75;;;;;;;;5016758;28;11572;-70
2021/03/18 12:57:27;;;;;;;;;12.75;11.25;;;;;;;;5021118;28;11257;-71
2021/03/18 12:59:55;;;;;;;;;24.00;23.00;;;;;;;;5019289;28;11173;-70
2021/03/18 13:02:23;;;;;;;;;11.75;11.75;;;;;;;;5021246;28;11501;-70
2021/03/18 13:04:50;;;;;;;;;5.00;5.00;;;;;;;;5019781;28;11216;-71
2021/03/18 13:07:17;;;;;;;;;14.00;14.00;;;;;;;;5016933;28;10994;-71
2021/03/18 13:09:44;;;;;;;;;14.50;14.50;;;;;;;;5010854;28;11380;-71
2021/03/18 13:12:11;;;;;;;;;15.75;13.50;;;;;;;;5020641;28;11411;-70
2021/03/18 13:14:38;;;;;;;;;14.75;11.00;;;;;;;;5020733;28;11130;-70
2021/03/18 13:17:05;;;;;;;;;7.50;7.50;;;;;;;;5023268;28;11163;-70
2021/03/18 13:19:33;;;;;;;;;10.75;8.25;;;;;;;;5022692;28;10982;-70
2021/03/18 13:21:59;;;;;;;;;13.75;13.50;;;;;;;;5021938;28;10992;-70
2021/03/18 13:24:26;;;;;;;;;17.00;11.50;;;;;;;;5019943;28;10991;-70
2021/03/18 13:26:53;;;;;;;;;5.50;5.50;;;;;;;;5018955;28;10979;-70
2021/03/18 13:29:20;;;;;;;;;13.00;10.00;;;;;;;;5023097;28;10695;-70
2021/03/18 13:31:47;;;;;;;;;7.00;7.00;;;;;;;;5014982;28;10863;-70
2021/03/18 13:34:15;;;;;;;;;10.75;10.75;;;;;;;;5020330;28;10761;-70
2021/03/18 13:36:43;;;;;;;;;7.00;7.00;;;;;;;;5022206;28;11003;-70
2021/03/18 13:39:10;;;;;;;;;6.50;5.00;;;;;;;;5019083;28;10775;-70
2021/03/18 13:41:38;;;;;;;;;7.00;7.00;;;;;;;;5020893;28;10583;-70
2021/03/18 13:44:06;;;;;;;;;9.50;9.00;;;;;;;;5021599;28;10655;-70
2021/03/18 13:46:34;;;;;;;;;3.00;3.00;;;;;;;;5022567;28;10677;-70
2021/03/18 13:49:02;;;;;;;;;11.50;9.50;;;;;;;;5020082;28;10555;-70
2021/03/18 13:51:29;;;;;;;;;1.00;1.00;;;;;;;;5022115;28;10602;-70
2021/03/18 13:53:58;;;;;;;;;6.50;6.50;;;;;;;;5022096;28;10320;-70
2021/03/18 13:56:25;;;;;;;;;5.50;5.50;;;;;;;;5019317;28;10731;-70
2021/03/18 13:58:51;;;;;;;;;2.50;2.50;;;;;;;;5022141;28;10527;-69
2021/03/18 14:01:19;;;;;;;;;3.00;3.00;;;;;;;;5021237;28;11318;-69
2021/03/18 14:03:46;;;;;;;;;9.25;7.75;;;;;;;;5019972;28;10493;-70
2021/03/18 14:06:13;;;;;;;;;13.25;11.75;;;;;;;;5020373;28;10666;-70
2021/03/18 14:08:40;;;;;;;;;18.25;14.75;;;;;;;;5022401;28;10974;-70
2021/03/18 14:11:07;;;;;;;;;20.00;20.00;;;;;;;;5019003;28;11098;-70
2021/03/18 14:13:34;;;;;;;;;12.25;12.25;;;;;;;;5021215;28;11201;-69
2021/03/18 14:16:03;;;;;;;;;10.75;8.75;;;;;;;;5026546;28;10844;-70
2021/03/18 14:18:30;;;;;;;;;30.00;26.75;;;;;;;;5024999;28;10887;-70
2021/03/18 14:20:57;;;;;;;;;7.75;6.75;;;;;;;;5024067;28;11543;-70
2021/03/18 14:23:23;;;;;;;;;19.00;16.50;;;;;;;;5022550;28;10786;-70
2021/03/18 14:25:50;;;;;;;;;14.50;11.75;;;;;;;;5023099;28;11043;-70
2021/03/18 14:28:18;;;;;;;;;17.00;15.00;;;;;;;;5024204;28;12331;-70
2021/03/18 14:30:46;;;;;;;;;9.25;8.00;;;;;;;;5025272;28;10810;-70
2021/03/18 14:33:14;;;;;;;;;11.00;11.00;;;;;;;;5024165;28;10646;-70
2021/03/18 14:35:42;;;;;;;;;4.00;4.00;;;;;;;;5025252;28;10617;-70
2021/03/18 14:38:10;;;;;;;;;4.00;4.00;;;;;;;;5024075;28;10408;-70
2021/03/18 14:40:38;;;;;;;;;15.00;13.00;;;;;;;;5024147;28;10326;-71
2021/03/18 14:43:06;;;;;;;;;6.25;6.25;;;;;;;;5024055;28;10429;-71
2021/03/18 14:45:34;;;;;;;;;3.00;3.00;;;;;;;;5025486;28;10068;-70
2021/03/18 14:48:03;;;;;;;;;7.75;7.75;;;;;;;;5024383;28;10123;-70
2021/03/18 14:50:30;;;;;;;;;8.75;8.75;;;;;;;;5020705;28;10339;-70